sensor_id;sensor_type;location;lat;lon;timestamp;temperature;humidity
14236;DHT22;7202;50.718;7.072;2022-09-09T00:02:22;16.90;99.90
14236;DHT22;7202;50.718;7.072;2022-09-09T00:04:58;16.80;99.90
14236;DHT22;7202;50.718;7.072;2022-09-09T00:07:38;16.80;99.90
14236;DHT22;7202;50.718;7.072;2022-09-09T00:10:16;16.80;99.90
14236;DHT22;7202;50.718;7.072;2022-09-09T00:12:53;16.70;99.90
14236;DHT22;7202;50.718;7.072;2022-09-09T00:15:27;16.70;99.90
14236;DHT22;7202;50.718;7.072;2022-09-09T00:18:01;16.60;99.90
14236;DHT22;7202;50.718;7.072;2022-09-09T00:20:37;16.60;99.90
14236;DHT22;7202;50.718;7.072;2022-09-09T00:23:14;16.60;99.90
14236;DHT22;7202;50.718;7.072;2022-09-09T00:25:51;16.50;99.90
14236;DHT22;7202;50.718;7.072;2022-09-09T00:28:24;16.50;99.90
14236;DHT22;7202;50.718;7.072;2022-09-09T00:30:55;16.50;99.90
14236;DHT22;7202;50.718;7.072;2022-09-09T00:33:25;16.40;99.90
14236;DHT22;7202;50.718;7.072;2022-09-09T00:35:57;16.40;99.90
14236;DHT22;7202;50.718;7.072;2022-09-09T00:38:32;16.40;99.90
14236;DHT22;7202;50.718;7.072;2022-09-09T00:41:07;16.30;99.90
14236;DHT22;7202;50.718;7.072;2022-09-09T00:43:38;16.30;99.90
14236;DHT22;7202;50.718;7.072;2022-09-09T00:46:47;16.30;99.90
14236;DHT22;7202;50.718;7.072;2022-09-09T00:49:28;16.30;99.90
14236;DHT22;7202;50.718;7.072;2022-09-09T00:52:12;16.30;99.90
14236;DHT22;7202;50.718;7.072;2022-09-09T00:54:50;16.30;99.90
14236;DHT22;7202;50.718;7.072;2022-09-09T00:57:26;16.30;99.90
14236;DHT22;7202;50.718;7.072;2022-09-09T01:00:02;16.20;99.90
14236;DHT22;7202;50.718;7.072;2022-09-09T01:02:39;16.10;99.90
14236;DHT22;7202;50.718;7.072;2022-09-09T01:05:18;16.10;99.90
14236;DHT22;7202;50.718;7.072;2022-09-09T01:07:50;16.10;99.90
14236;DHT22;7202;50.718;7.072;2022-09-09T01:10:30;16.10;99.90
14236;DHT22;7202;50.718;7.072;2022-09-09T01:13:11;16.10;99.90
14236;DHT22;7202;50.718;7.072;2022-09-09T01:15:44;16.00;99.90
14236;DHT22;7202;50.718;7.072;2022-09-09T01:18:17;16.00;99.90
14236;DHT22;7202;50.718;7.072;2022-09-09T01:20:51;16.00;99.90
14236;DHT22;7202;50.718;7.072;2022-09-09T01:23:38;16.00;99.90
14236;DHT22;7202;50.718;7.072;2022-09-09T01:26:27;16.00;99.90
14236;DHT22;7202;50.718;7.072;2022-09-09T01:28:59;16.00;99.90
14236;DHT22;7202;50.718;7.072;2022-09-09T01:31:37;16.00;99.90
14236;DHT22;7202;50.718;7.072;2022-09-09T01:34:10;15.90;99.90
14236;DHT22;7202;50.718;7.072;2022-09-09T01:36:42;15.90;99.90
14236;DHT22;7202;50.718;7.072;2022-09-09T01:39:12;16.00;99.90
14236;DHT22;7202;50.718;7.072;2022-09-09T01:41:43;15.90;99.90
14236;DHT22;7202;50.718;7.072;2022-09-09T01:44:13;15.90;99.90
14236;DHT22;7202;50.718;7.072;2022-09-09T01:46:44;16.00;99.90
14236;DHT22;7202;50.718;7.072;2022-09-09T01:49:17;16.00;99.90
14236;DHT22;7202;50.718;7.072;2022-09-09T01:51:49;16.00;99.90
14236;DHT22;7202;50.718;7.072;2022-09-09T01:54:22;16.00;99.90
14236;DHT22;7202;50.718;7.072;2022-09-09T01:57:01;16.00;99.90
14236;DHT22;7202;50.718;7.072;2022-09-09T01:59:45;16.10;99.90
14236;DHT22;7202;50.718;7.072;2022-09-09T02:02:18;16.10;99.90
14236;DHT22;7202;50.718;7.072;2022-09-09T02:05:04;16.20;99.90
14236;DHT22;7202;50.718;7.072;2022-09-09T02:07:39;16.20;99.90
14236;DHT22;7202;50.718;7.072;2022-09-09T02:10:24;16.20;99.90
14236;DHT22;7202;50.718;7.072;2022-09-09T02:13:09;16.30;99.90
14236;DHT22;7202;50.718;7.072;2022-09-09T02:15:42;16.30;99.90
14236;DHT22;7202;50.718;7.072;2022-09-09T02:18:15;16.30;99.90
14236;DHT22;7202;50.718;7.072;2022-09-09T02:20:46;16.30;99.90
14236;DHT22;7202;50.718;7.072;2022-09-09T02:23:16;16.30;99.90
14236;DHT22;7202;50.718;7.072;2022-09-09T02:25:49;16.30;99.90
14236;DHT22;7202;50.718;7.072;2022-09-09T02:28:26;16.40;99.90
14236;DHT22;7202;50.718;7.072;2022-09-09T02:30:56;16.50;99.90
14236;DHT22;7202;50.718;7.072;2022-09-09T02:33:36;16.40;99.90
14236;DHT22;7202;50.718;7.072;2022-09-09T02:36:08;16.40;99.90
14236;DHT22;7202;50.718;7.072;2022-09-09T02:38:41;16.40;99.90
14236;DHT22;7202;50.718;7.072;2022-09-09T02:41:13;16.50;99.90
14236;DHT22;7202;50.718;7.072;2022-09-09T02:43:44;16.50;99.90
14236;DHT22;7202;50.718;7.072;2022-09-09T02:46:26;16.50;99.90
14236;DHT22;7202;50.718;7.072;2022-09-09T02:49:01;16.50;99.90
14236;DHT22;7202;50.718;7.072;2022-09-09T02:51:40;16.50;99.90
14236;DHT22;7202;50.718;7.072;2022-09-09T02:54:20;16.50;99.90
14236;DHT22;7202;50.718;7.072;2022-09-09T02:56:52;16.60;99.90
14236;DHT22;7202;50.718;7.072;2022-09-09T02:59:29;16.60;99.90
14236;DHT22;7202;50.718;7.072;2022-09-09T03:01:58;16.60;99.90
14236;DHT22;7202;50.718;7.072;2022-09-09T03:04:27;16.60;99.90
14236;DHT22;7202;50.718;7.072;2022-09-09T03:06:57;16.60;99.90
14236;DHT22;7202;50.718;7.072;2022-09-09T03:09:25;16.60;99.90
14236;DHT22;7202;50.718;7.072;2022-09-09T03:11:56;16.60;99.90
14236;DHT22;7202;50.718;7.072;2022-09-09T03:14:26;16.60;99.90
14236;DHT22;7202;50.718;7.072;2022-09-09T03:16:56;16.60;99.90
14236;DHT22;7202;50.718;7.072;2022-09-09T03:19:31;16.70;99.90
14236;DHT22;7202;50.718;7.072;2022-09-09T03:22:00;16.60;99.90
14236;DHT22;7202;50.718;7.072;2022-09-09T03:24:30;16.60;99.90
14236;DHT22;7202;50.718;7.072;2022-09-09T03:26:58;16.60;99.90
14236;DHT22;7202;50.718;7.072;2022-09-09T03:29:27;16.60;99.90
14236;DHT22;7202;50.718;7.072;2022-09-09T03:31:59;16.60;99.90
14236;DHT22;7202;50.718;7.072;2022-09-09T03:34:28;16.60;99.90
14236;DHT22;7202;50.718;7.072;2022-09-09T03:36:58;16.60;99.90
14236;DHT22;7202;50.718;7.072;2022-09-09T03:39:28;16.60;99.90
14236;DHT22;7202;50.718;7.072;2022-09-09T03:41:59;16.60;99.90
14236;DHT22;7202;50.718;7.072;2022-09-09T03:44:31;16.60;99.90
14236;DHT22;7202;50.718;7.072;2022-09-09T03:47:02;16.60;99.90
14236;DHT22;7202;50.718;7.072;2022-09-09T03:49:30;16.60;99.90
14236;DHT22;7202;50.718;7.072;2022-09-09T03:52:00;16.60;99.90
14236;DHT22;7202;50.718;7.072;2022-09-09T03:54:29;16.60;99.90
14236;DHT22;7202;50.718;7.072;2022-09-09T03:56:58;16.60;99.90
14236;DHT22;7202;50.718;7.072;2022-09-09T03:59:26;16.60;99.90
14236;DHT22;7202;50.718;7.072;2022-09-09T04:01:56;16.60;99.90
14236;DHT22;7202;50.718;7.072;2022-09-09T04:04:28;16.50;99.90
14236;DHT22;7202;50.718;7.072;2022-09-09T04:06:57;16.50;99.90
14236;DHT22;7202;50.718;7.072;2022-09-09T04:09:25;16.50;99.90
14236;DHT22;7202;50.718;7.072;2022-09-09T04:11:54;16.50;99.90
14236;DHT22;7202;50.718;7.072;2022-09-09T04:14:22;16.50;99.90
14236;DHT22;7202;50.718;7.072;2022-09-09T04:16:55;16.50;99.90
14236;DHT22;7202;50.718;7.072;2022-09-09T04:19:25;16.50;99.90
14236;DHT22;7202;50.718;7.072;2022-09-09T04:21:55;16.50;99.90
14236;DHT22;7202;50.718;7.072;2022-09-09T04:24:24;16.50;99.90
14236;DHT22;7202;50.718;7.072;2022-09-09T04:26:54;16.50;99.90
14236;DHT22;7202;50.718;7.072;2022-09-09T04:29:23;16.50;99.90
14236;DHT22;7202;50.718;7.072;2022-09-09T04:31:51;16.50;99.90
14236;DHT22;7202;50.718;7.072;2022-09-09T04:34:20;16.50;99.90
14236;DHT22;7202;50.718;7.072;2022-09-09T04:36:49;16.50;99.90
14236;DHT22;7202;50.718;7.072;2022-09-09T04:39:20;16.50;99.90
14236;DHT22;7202;50.718;7.072;2022-09-09T04:41:49;16.50;99.90
14236;DHT22;7202;50.718;7.072;2022-09-09T04:44:17;16.50;99.90
14236;DHT22;7202;50.718;7.072;2022-09-09T04:46:47;16.50;99.90
14236;DHT22;7202;50.718;7.072;2022-09-09T04:49:15;16.60;99.90
14236;DHT22;7202;50.718;7.072;2022-09-09T04:51:45;16.60;99.90
14236;DHT22;7202;50.718;7.072;2022-09-09T04:54:14;16.60;99.90
14236;DHT22;7202;50.718;7.072;2022-09-09T04:56:45;16.60;99.90
14236;DHT22;7202;50.718;7.072;2022-09-09T04:59:14;16.60;99.90
14236;DHT22;7202;50.718;7.072;2022-09-09T05:01:50;16.60;99.90
14236;DHT22;7202;50.718;7.072;2022-09-09T05:04:18;16.60;99.90
14236;DHT22;7202;50.718;7.072;2022-09-09T05:06:47;16.60;99.90
14236;DHT22;7202;50.718;7.072;2022-09-09T05:09:16;16.60;99.90
14236;DHT22;7202;50.718;7.072;2022-09-09T05:11:47;16.60;99.90
14236;DHT22;7202;50.718;7.072;2022-09-09T05:14:30;16.60;99.90
14236;DHT22;7202;50.718;7.072;2022-09-09T05:17:00;16.50;99.90
14236;DHT22;7202;50.718;7.072;2022-09-09T05:19:29;16.50;99.90
14236;DHT22;7202;50.718;7.072;2022-09-09T05:21:58;16.50;99.90
14236;DHT22;7202;50.718;7.072;2022-09-09T05:24:36;16.50;99.90
14236;DHT22;7202;50.718;7.072;2022-09-09T05:27:06;16.60;99.90
14236;DHT22;7202;50.718;7.072;2022-09-09T05:29:38;16.60;99.90
14236;DHT22;7202;50.718;7.072;2022-09-09T05:32:09;16.60;99.90
14236;DHT22;7202;50.718;7.072;2022-09-09T05:34:43;16.60;99.90
14236;DHT22;7202;50.718;7.072;2022-09-09T05:37:12;16.60;99.90
14236;DHT22;7202;50.718;7.072;2022-09-09T05:39:40;16.60;99.90
14236;DHT22;7202;50.718;7.072;2022-09-09T05:42:11;16.60;99.90
14236;DHT22;7202;50.718;7.072;2022-09-09T05:44:39;16.60;99.90
14236;DHT22;7202;50.718;7.072;2022-09-09T05:47:12;16.60;99.90
14236;DHT22;7202;50.718;7.072;2022-09-09T05:49:43;16.60;99.90
14236;DHT22;7202;50.718;7.072;2022-09-09T05:52:11;16.60;99.90
14236;DHT22;7202;50.718;7.072;2022-09-09T05:54:41;16.60;99.90
14236;DHT22;7202;50.718;7.072;2022-09-09T05:57:12;16.70;99.90
14236;DHT22;7202;50.718;7.072;2022-09-09T05:59:40;16.70;99.90
14236;DHT22;7202;50.718;7.072;2022-09-09T06:02:09;16.70;99.90
14236;DHT22;7202;50.718;7.072;2022-09-09T06:04:39;16.70;99.90
14236;DHT22;7202;50.718;7.072;2022-09-09T06:07:07;16.80;99.90
14236;DHT22;7202;50.718;7.072;2022-09-09T06:09:36;16.80;99.90
14236;DHT22;7202;50.718;7.072;2022-09-09T06:12:07;16.80;99.90
14236;DHT22;7202;50.718;7.072;2022-09-09T06:14:38;16.90;99.90
14236;DHT22;7202;50.718;7.072;2022-09-09T06:17:12;16.90;99.90
14236;DHT22;7202;50.718;7.072;2022-09-09T06:19:41;17.00;99.90
14236;DHT22;7202;50.718;7.072;2022-09-09T06:22:10;17.00;99.90
14236;DHT22;7202;50.718;7.072;2022-09-09T06:24:39;17.10;99.90
14236;DHT22;7202;50.718;7.072;2022-09-09T06:27:07;17.10;99.90
14236;DHT22;7202;50.718;7.072;2022-09-09T06:29:38;17.20;99.90
14236;DHT22;7202;50.718;7.072;2022-09-09T06:32:07;17.30;99.90
14236;DHT22;7202;50.718;7.072;2022-09-09T06:34:36;17.30;99.90
14236;DHT22;7202;50.718;7.072;2022-09-09T06:37:05;17.30;99.90
14236;DHT22;7202;50.718;7.072;2022-09-09T06:39:42;17.30;99.90
14236;DHT22;7202;50.718;7.072;2022-09-09T06:42:10;17.30;99.90
14236;DHT22;7202;50.718;7.072;2022-09-09T06:44:58;17.30;99.90
14236;DHT22;7202;50.718;7.072;2022-09-09T06:47:46;17.30;99.90
14236;DHT22;7202;50.718;7.072;2022-09-09T06:50:15;17.40;99.90
14236;DHT22;7202;50.718;7.072;2022-09-09T06:52:46;17.40;99.90
14236;DHT22;7202;50.718;7.072;2022-09-09T06:55:16;17.50;99.90
14236;DHT22;7202;50.718;7.072;2022-09-09T06:57:45;17.50;99.90
14236;DHT22;7202;50.718;7.072;2022-09-09T07:00:22;17.60;99.90
14236;DHT22;7202;50.718;7.072;2022-09-09T07:02:51;17.70;99.90
14236;DHT22;7202;50.718;7.072;2022-09-09T07:05:20;17.70;99.90
14236;DHT22;7202;50.718;7.072;2022-09-09T07:07:51;17.70;99.90
14236;DHT22;7202;50.718;7.072;2022-09-09T07:10:20;17.70;99.90
14236;DHT22;7202;50.718;7.072;2022-09-09T07:12:50;17.80;99.90
14236;DHT22;7202;50.718;7.072;2022-09-09T07:15:23;17.70;99.90
14236;DHT22;7202;50.718;7.072;2022-09-09T07:17:53;17.80;99.90
14236;DHT22;7202;50.718;7.072;2022-09-09T07:20:22;17.90;99.90
14236;DHT22;7202;50.718;7.072;2022-09-09T07:22:54;17.90;99.90
14236;DHT22;7202;50.718;7.072;2022-09-09T07:25:23;18.00;99.90
14236;DHT22;7202;50.718;7.072;2022-09-09T07:27:53;18.00;99.90
14236;DHT22;7202;50.718;7.072;2022-09-09T07:30:23;18.00;99.90
14236;DHT22;7202;50.718;7.072;2022-09-09T07:32:55;18.10;99.90
14236;DHT22;7202;50.718;7.072;2022-09-09T07:35:25;18.10;99.90
14236;DHT22;7202;50.718;7.072;2022-09-09T07:37:54;18.20;99.90
14236;DHT22;7202;50.718;7.072;2022-09-09T07:40:23;18.20;99.90
14236;DHT22;7202;50.718;7.072;2022-09-09T07:42:53;18.10;99.90
14236;DHT22;7202;50.718;7.072;2022-09-09T07:45:23;18.20;99.90
14236;DHT22;7202;50.718;7.072;2022-09-09T07:47:52;18.30;99.90
14236;DHT22;7202;50.718;7.072;2022-09-09T07:50:20;18.40;99.90
14236;DHT22;7202;50.718;7.072;2022-09-09T07:52:50;18.50;99.90
14236;DHT22;7202;50.718;7.072;2022-09-09T07:55:20;18.60;99.90
14236;DHT22;7202;50.718;7.072;2022-09-09T07:57:52;18.70;99.90
14236;DHT22;7202;50.718;7.072;2022-09-09T08:00:23;18.70;99.90
14236;DHT22;7202;50.718;7.072;2022-09-09T08:02:56;18.70;99.90
14236;DHT22;7202;50.718;7.072;2022-09-09T08:05:24;18.70;99.90
14236;DHT22;7202;50.718;7.072;2022-09-09T08:07:53;18.70;99.90
14236;DHT22;7202;50.718;7.072;2022-09-09T08:10:22;18.70;99.90
14236;DHT22;7202;50.718;7.072;2022-09-09T08:12:52;18.70;99.90
14236;DHT22;7202;50.718;7.072;2022-09-09T08:15:43;18.70;99.90
14236;DHT22;7202;50.718;7.072;2022-09-09T08:18:13;18.70;99.90
14236;DHT22;7202;50.718;7.072;2022-09-09T08:20:41;18.70;99.90
14236;DHT22;7202;50.718;7.072;2022-09-09T08:23:10;18.80;99.90
14236;DHT22;7202;50.718;7.072;2022-09-09T08:25:38;18.80;99.90
14236;DHT22;7202;50.718;7.072;2022-09-09T08:28:07;18.90;99.90
14236;DHT22;7202;50.718;7.072;2022-09-09T08:30:36;19.00;99.90
14236;DHT22;7202;50.718;7.072;2022-09-09T08:33:09;19.00;99.90
14236;DHT22;7202;50.718;7.072;2022-09-09T08:35:37;19.10;99.90
14236;DHT22;7202;50.718;7.072;2022-09-09T08:38:06;19.10;99.90
14236;DHT22;7202;50.718;7.072;2022-09-09T08:40:43;19.10;99.90
14236;DHT22;7202;50.718;7.072;2022-09-09T08:43:18;19.10;99.90
14236;DHT22;7202;50.718;7.072;2022-09-09T08:45:53;19.20;99.90
14236;DHT22;7202;50.718;7.072;2022-09-09T08:48:40;19.20;99.90
14236;DHT22;7202;50.718;7.072;2022-09-09T08:51:13;19.20;99.90
14236;DHT22;7202;50.718;7.072;2022-09-09T08:53:46;19.20;99.90
14236;DHT22;7202;50.718;7.072;2022-09-09T08:56:18;19.30;99.90
14236;DHT22;7202;50.718;7.072;2022-09-09T08:58:54;19.40;99.90
14236;DHT22;7202;50.718;7.072;2022-09-09T09:01:41;19.40;99.90
14236;DHT22;7202;50.718;7.072;2022-09-09T09:04:32;19.60;99.90
14236;DHT22;7202;50.718;7.072;2022-09-09T09:07:08;19.60;99.90
14236;DHT22;7202;50.718;7.072;2022-09-09T09:09:48;19.70;99.90
14236;DHT22;7202;50.718;7.072;2022-09-09T09:12:21;19.80;99.90
14236;DHT22;7202;50.718;7.072;2022-09-09T09:14:51;19.80;99.90
14236;DHT22;7202;50.718;7.072;2022-09-09T09:17:25;19.80;99.90
14236;DHT22;7202;50.718;7.072;2022-09-09T09:19:57;19.80;99.90
14236;DHT22;7202;50.718;7.072;2022-09-09T09:22:32;19.80;99.90
14236;DHT22;7202;50.718;7.072;2022-09-09T09:25:11;19.90;99.90
14236;DHT22;7202;50.718;7.072;2022-09-09T09:27:52;19.90;99.90
14236;DHT22;7202;50.718;7.072;2022-09-09T09:30:29;20.00;99.90
14236;DHT22;7202;50.718;7.072;2022-09-09T09:33:08;20.00;99.90
14236;DHT22;7202;50.718;7.072;2022-09-09T09:35:42;20.10;99.90
14236;DHT22;7202;50.718;7.072;2022-09-09T09:38:17;20.00;99.90
14236;DHT22;7202;50.718;7.072;2022-09-09T09:41:07;20.10;99.90
14236;DHT22;7202;50.718;7.072;2022-09-09T09:43:37;20.00;99.90
14236;DHT22;7202;50.718;7.072;2022-09-09T09:46:19;20.00;99.90
14236;DHT22;7202;50.718;7.072;2022-09-09T09:48:57;20.00;99.90
14236;DHT22;7202;50.718;7.072;2022-09-09T09:51:30;19.90;99.90
14236;DHT22;7202;50.718;7.072;2022-09-09T09:54:09;20.00;99.90
14236;DHT22;7202;50.718;7.072;2022-09-09T09:56:45;20.00;99.90
14236;DHT22;7202;50.718;7.072;2022-09-09T09:59:33;20.10;99.90
14236;DHT22;7202;50.718;7.072;2022-09-09T10:02:18;20.20;99.90
14236;DHT22;7202;50.718;7.072;2022-09-09T10:05:05;20.20;99.90
14236;DHT22;7202;50.718;7.072;2022-09-09T10:07:37;20.30;99.90
14236;DHT22;7202;50.718;7.072;2022-09-09T10:10:12;20.20;99.90
14236;DHT22;7202;50.718;7.072;2022-09-09T10:12:49;20.20;99.90
14236;DHT22;7202;50.718;7.072;2022-09-09T10:15:31;20.20;99.90
14236;DHT22;7202;50.718;7.072;2022-09-09T10:18:13;20.10;99.90
14236;DHT22;7202;50.718;7.072;2022-09-09T10:20:49;20.10;99.90
14236;DHT22;7202;50.718;7.072;2022-09-09T10:23:39;20.10;99.90
14236;DHT22;7202;50.718;7.072;2022-09-09T10:26:23;20.10;99.90
14236;DHT22;7202;50.718;7.072;2022-09-09T10:29:15;20.20;99.90
14236;DHT22;7202;50.718;7.072;2022-09-09T10:31:54;20.10;99.90
14236;DHT22;7202;50.718;7.072;2022-09-09T10:34:41;20.10;99.90
14236;DHT22;7202;50.718;7.072;2022-09-09T10:37:21;20.00;99.90
14236;DHT22;7202;50.718;7.072;2022-09-09T10:40:02;20.00;99.90
14236;DHT22;7202;50.718;7.072;2022-09-09T10:42:33;19.90;99.90
14236;DHT22;7202;50.718;7.072;2022-09-09T10:45:16;20.00;99.90
14236;DHT22;7202;50.718;7.072;2022-09-09T10:48:05;19.90;99.90
14236;DHT22;7202;50.718;7.072;2022-09-09T10:50:46;20.00;99.90
14236;DHT22;7202;50.718;7.072;2022-09-09T10:53:43;20.00;99.90
14236;DHT22;7202;50.718;7.072;2022-09-09T10:56:16;20.00;99.90
14236;DHT22;7202;50.718;7.072;2022-09-09T10:58:49;20.00;99.90
14236;DHT22;7202;50.718;7.072;2022-09-09T11:01:21;20.00;99.90
14236;DHT22;7202;50.718;7.072;2022-09-09T11:03:55;20.10;99.90
14236;DHT22;7202;50.718;7.072;2022-09-09T11:06:29;20.20;99.90
14236;DHT22;7202;50.718;7.072;2022-09-09T11:09:01;20.20;99.90
14236;DHT22;7202;50.718;7.072;2022-09-09T11:11:35;20.40;99.90
14236;DHT22;7202;50.718;7.072;2022-09-09T11:14:12;20.60;99.90
14236;DHT22;7202;50.718;7.072;2022-09-09T11:16:47;20.70;99.90
14236;DHT22;7202;50.718;7.072;2022-09-09T11:19:24;20.90;99.90
14236;DHT22;7202;50.718;7.072;2022-09-09T11:21:55;21.00;99.90
14236;DHT22;7202;50.718;7.072;2022-09-09T11:24:28;21.30;99.90
14236;DHT22;7202;50.718;7.072;2022-09-09T11:27:02;21.50;99.90
14236;DHT22;7202;50.718;7.072;2022-09-09T11:30:04;21.60;99.90
14236;DHT22;7202;50.718;7.072;2022-09-09T11:35:58;22.00;99.90
14236;DHT22;7202;50.718;7.072;2022-09-09T11:38:39;22.20;99.90
14236;DHT22;7202;50.718;7.072;2022-09-09T11:41:13;22.30;99.90
14236;DHT22;7202;50.718;7.072;2022-09-09T11:43:50;22.30;99.90
14236;DHT22;7202;50.718;7.072;2022-09-09T11:46:21;22.30;99.90
14236;DHT22;7202;50.718;7.072;2022-09-09T11:49:00;22.20;99.90
14236;DHT22;7202;50.718;7.072;2022-09-09T11:51:30;22.20;99.90
14236;DHT22;7202;50.718;7.072;2022-09-09T11:54:00;22.10;99.90
14236;DHT22;7202;50.718;7.072;2022-09-09T11:56:31;22.10;99.90
14236;DHT22;7202;50.718;7.072;2022-09-09T11:59:03;22.00;99.90
14236;DHT22;7202;50.718;7.072;2022-09-09T12:01:37;22.00;99.90
14236;DHT22;7202;50.718;7.072;2022-09-09T12:07:04;21.90;99.90
14236;DHT22;7202;50.718;7.072;2022-09-09T12:09:45;21.90;99.90
14236;DHT22;7202;50.718;7.072;2022-09-09T12:12:29;21.80;99.90
14236;DHT22;7202;50.718;7.072;2022-09-09T12:15:19;21.80;99.90
14236;DHT22;7202;50.718;7.072;2022-09-09T12:17:51;21.70;99.90
14236;DHT22;7202;50.718;7.072;2022-09-09T12:20:22;21.70;99.90
14236;DHT22;7202;50.718;7.072;2022-09-09T12:23:18;21.70;99.90
14236;DHT22;7202;50.718;7.072;2022-09-09T12:25:57;21.70;99.90
14236;DHT22;7202;50.718;7.072;2022-09-09T12:28:39;21.70;99.90
14236;DHT22;7202;50.718;7.072;2022-09-09T12:31:14;21.70;99.90
14236;DHT22;7202;50.718;7.072;2022-09-09T12:33:46;21.60;99.90
14236;DHT22;7202;50.718;7.072;2022-09-09T12:36:19;21.60;99.90
14236;DHT22;7202;50.718;7.072;2022-09-09T12:38:50;21.50;99.90
14236;DHT22;7202;50.718;7.072;2022-09-09T12:41:21;21.50;99.90
14236;DHT22;7202;50.718;7.072;2022-09-09T12:43:50;21.40;99.90
14236;DHT22;7202;50.718;7.072;2022-09-09T12:46:28;21.30;99.90
14236;DHT22;7202;50.718;7.072;2022-09-09T12:49:00;21.30;99.90
14236;DHT22;7202;50.718;7.072;2022-09-09T12:51:31;21.30;99.90
14236;DHT22;7202;50.718;7.072;2022-09-09T12:54:00;21.30;99.90
14236;DHT22;7202;50.718;7.072;2022-09-09T12:56:32;21.30;99.90
14236;DHT22;7202;50.718;7.072;2022-09-09T12:59:01;21.30;99.90
14236;DHT22;7202;50.718;7.072;2022-09-09T13:01:32;21.20;99.90
14236;DHT22;7202;50.718;7.072;2022-09-09T13:04:01;21.10;99.90
14236;DHT22;7202;50.718;7.072;2022-09-09T13:06:32;21.10;99.90
14236;DHT22;7202;50.718;7.072;2022-09-09T13:09:02;21.00;99.90
14236;DHT22;7202;50.718;7.072;2022-09-09T13:11:35;21.00;99.90
14236;DHT22;7202;50.718;7.072;2022-09-09T13:14:05;21.10;99.90
14236;DHT22;7202;50.718;7.072;2022-09-09T13:16:36;21.10;99.90
14236;DHT22;7202;50.718;7.072;2022-09-09T13:19:14;21.00;99.90
14236;DHT22;7202;50.718;7.072;2022-09-09T13:21:44;21.00;99.90
14236;DHT22;7202;50.718;7.072;2022-09-09T13:24:25;20.90;99.90
14236;DHT22;7202;50.718;7.072;2022-09-09T13:26:56;20.90;99.90
14236;DHT22;7202;50.718;7.072;2022-09-09T13:29:25;20.90;99.90
14236;DHT22;7202;50.718;7.072;2022-09-09T13:32:03;20.90;99.90
14236;DHT22;7202;50.718;7.072;2022-09-09T13:34:34;20.80;99.90
14236;DHT22;7202;50.718;7.072;2022-09-09T13:37:04;20.90;99.90
14236;DHT22;7202;50.718;7.072;2022-09-09T13:39:35;20.90;99.90
14236;DHT22;7202;50.718;7.072;2022-09-09T13:42:05;21.00;99.90
14236;DHT22;7202;50.718;7.072;2022-09-09T13:44:36;21.20;99.90
14236;DHT22;7202;50.718;7.072;2022-09-09T13:47:18;21.30;99.90
14236;DHT22;7202;50.718;7.072;2022-09-09T13:49:47;21.40;99.90
14236;DHT22;7202;50.718;7.072;2022-09-09T13:52:17;21.40;99.90
14236;DHT22;7202;50.718;7.072;2022-09-09T13:54:47;21.40;99.90
14236;DHT22;7202;50.718;7.072;2022-09-09T13:57:19;21.40;99.90
14236;DHT22;7202;50.718;7.072;2022-09-09T13:59:50;21.40;99.90
14236;DHT22;7202;50.718;7.072;2022-09-09T14:02:36;21.40;99.90
14236;DHT22;7202;50.718;7.072;2022-09-09T14:05:06;21.40;99.90
14236;DHT22;7202;50.718;7.072;2022-09-09T14:07:35;21.40;99.90
14236;DHT22;7202;50.718;7.072;2022-09-09T14:10:05;21.40;99.90
14236;DHT22;7202;50.718;7.072;2022-09-09T14:12:35;21.40;99.90
14236;DHT22;7202;50.718;7.072;2022-09-09T14:15:04;21.30;99.90
14236;DHT22;7202;50.718;7.072;2022-09-09T14:17:33;21.30;99.90
14236;DHT22;7202;50.718;7.072;2022-09-09T14:20:07;21.30;99.90
14236;DHT22;7202;50.718;7.072;2022-09-09T14:22:36;21.30;99.90
14236;DHT22;7202;50.718;7.072;2022-09-09T14:25:07;21.40;99.90
14236;DHT22;7202;50.718;7.072;2022-09-09T14:27:36;21.60;99.90
14236;DHT22;7202;50.718;7.072;2022-09-09T14:30:07;21.60;99.90
14236;DHT22;7202;50.718;7.072;2022-09-09T14:32:36;21.60;99.90
14236;DHT22;7202;50.718;7.072;2022-09-09T14:35:07;21.60;99.90
14236;DHT22;7202;50.718;7.072;2022-09-09T14:37:36;21.60;99.90
14236;DHT22;7202;50.718;7.072;2022-09-09T14:40:06;21.70;99.90
14236;DHT22;7202;50.718;7.072;2022-09-09T14:42:35;21.70;99.90
14236;DHT22;7202;50.718;7.072;2022-09-09T14:45:05;21.80;99.90
14236;DHT22;7202;50.718;7.072;2022-09-09T14:47:34;21.80;99.90
14236;DHT22;7202;50.718;7.072;2022-09-09T14:50:03;21.90;99.90
14236;DHT22;7202;50.718;7.072;2022-09-09T14:52:33;22.00;99.90
14236;DHT22;7202;50.718;7.072;2022-09-09T14:55:02;22.10;99.90
14236;DHT22;7202;50.718;7.072;2022-09-09T14:57:31;22.10;99.90
14236;DHT22;7202;50.718;7.072;2022-09-09T14:59:59;22.10;99.90
14236;DHT22;7202;50.718;7.072;2022-09-09T15:02:28;22.10;99.90
14236;DHT22;7202;50.718;7.072;2022-09-09T15:04:57;22.00;99.90
14236;DHT22;7202;50.718;7.072;2022-09-09T15:07:26;22.00;99.90
14236;DHT22;7202;50.718;7.072;2022-09-09T15:09:56;21.90;99.90
14236;DHT22;7202;50.718;7.072;2022-09-09T15:12:25;21.90;99.90
14236;DHT22;7202;50.718;7.072;2022-09-09T15:14:55;21.80;99.90
14236;DHT22;7202;50.718;7.072;2022-09-09T15:17:24;21.70;99.90
14236;DHT22;7202;50.718;7.072;2022-09-09T15:19:54;21.60;99.90
14236;DHT22;7202;50.718;7.072;2022-09-09T15:22:23;21.60;99.90
14236;DHT22;7202;50.718;7.072;2022-09-09T15:24:52;21.50;99.90
14236;DHT22;7202;50.718;7.072;2022-09-09T15:27:21;21.50;99.90
14236;DHT22;7202;50.718;7.072;2022-09-09T15:29:51;21.40;99.90
14236;DHT22;7202;50.718;7.072;2022-09-09T15:32:19;21.30;99.90
14236;DHT22;7202;50.718;7.072;2022-09-09T15:34:48;21.20;99.90
14236;DHT22;7202;50.718;7.072;2022-09-09T15:37:20;21.20;99.90
14236;DHT22;7202;50.718;7.072;2022-09-09T15:39:48;21.10;99.90
14236;DHT22;7202;50.718;7.072;2022-09-09T15:42:17;21.00;99.90
14236;DHT22;7202;50.718;7.072;2022-09-09T15:44:47;20.90;99.90
14236;DHT22;7202;50.718;7.072;2022-09-09T15:47:15;20.80;99.90
14236;DHT22;7202;50.718;7.072;2022-09-09T15:49:45;20.70;99.90
14236;DHT22;7202;50.718;7.072;2022-09-09T15:52:13;20.60;99.90
14236;DHT22;7202;50.718;7.072;2022-09-09T15:54:41;20.50;99.90
14236;DHT22;7202;50.718;7.072;2022-09-09T15:57:12;20.40;99.90
14236;DHT22;7202;50.718;7.072;2022-09-09T15:59:41;20.30;99.90
14236;DHT22;7202;50.718;7.072;2022-09-09T16:02:13;20.40;99.90
14236;DHT22;7202;50.718;7.072;2022-09-09T16:04:42;20.30;99.90
14236;DHT22;7202;50.718;7.072;2022-09-09T16:07:11;20.20;99.90
14236;DHT22;7202;50.718;7.072;2022-09-09T16:09:40;20.20;99.90
14236;DHT22;7202;50.718;7.072;2022-09-09T16:12:10;20.20;99.90
14236;DHT22;7202;50.718;7.072;2022-09-09T16:14:40;20.20;99.90
14236;DHT22;7202;50.718;7.072;2022-09-09T16:17:08;20.20;99.90
14236;DHT22;7202;50.718;7.072;2022-09-09T16:19:38;20.20;99.90
14236;DHT22;7202;50.718;7.072;2022-09-09T16:22:07;20.20;99.90
14236;DHT22;7202;50.718;7.072;2022-09-09T16:24:35;20.10;99.90
14236;DHT22;7202;50.718;7.072;2022-09-09T16:27:04;20.10;99.90
14236;DHT22;7202;50.718;7.072;2022-09-09T16:29:34;20.10;99.90